sensor_id;sensor_type;location;lat;lon;timestamp;P1;durP1;ratioP1;P2;durP2;ratioP2
823;SDS011;373;49.342;8.146;2024-02-26T00:00:23;1.80;;;1.50;;
823;SDS011;373;49.342;8.146;2024-02-26T00:02:50;2.25;;;1.58;;
823;SDS011;373;49.342;8.146;2024-02-26T00:05:17;1.85;;;1.75;;
823;SDS011;373;49.342;8.146;2024-02-26T00:07:46;1.90;;;1.70;;
823;SDS011;373;49.342;8.146;2024-02-26T00:10:14;2.83;;;1.60;;
823;SDS011;373;49.342;8.146;2024-02-26T00:12:42;2.22;;;1.83;;
823;SDS011;373;49.342;8.146;2024-02-26T00:15:09;2.75;;;1.92;;
823;SDS011;373;49.342;8.146;2024-02-26T00:17:37;1.77;;;1.67;;
823;SDS011;373;49.342;8.146;2024-02-26T00:20:06;2.13;;;1.92;;
823;SDS011;373;49.342;8.146;2024-02-26T00:22:34;2.47;;;1.95;;
823;SDS011;373;49.342;8.146;2024-02-26T00:25:03;1.52;;;1.42;;
823;SDS011;373;49.342;8.146;2024-02-26T00:27:31;1.70;;;1.60;;
823;SDS011;373;49.342;8.146;2024-02-26T00:29:58;2.53;;;1.65;;
823;SDS011;373;49.342;8.146;2024-02-26T00:32:26;2.40;;;1.50;;
823;SDS011;373;49.342;8.146;2024-02-26T00:34:53;1.58;;;1.33;;
823;SDS011;373;49.342;8.146;2024-02-26T00:37:20;1.75;;;1.48;;
823;SDS011;373;49.342;8.146;2024-02-26T00:39:48;1.30;;;1.20;;
823;SDS011;373;49.342;8.146;2024-02-26T00:42:17;1.50;;;1.35;;
823;SDS011;373;49.342;8.146;2024-02-26T00:44:44;2.45;;;1.30;;
823;SDS011;373;49.342;8.146;2024-02-26T00:47:11;1.35;;;1.10;;
823;SDS011;373;49.342;8.146;2024-02-26T00:49:38;1.30;;;1.20;;
823;SDS011;373;49.342;8.146;2024-02-26T00:52:06;2.38;;;1.15;;
823;SDS011;373;49.342;8.146;2024-02-26T00:54:33;0.90;;;0.90;;
823;SDS011;373;49.342;8.146;2024-02-26T00:57:01;1.30;;;1.20;;
823;SDS011;373;49.342;8.146;2024-02-26T00:59:30;1.92;;;1.75;;
823;SDS011;373;49.342;8.146;2024-02-26T01:01:57;1.77;;;1.20;;
823;SDS011;373;49.342;8.146;2024-02-26T01:04:27;1.55;;;1.15;;
823;SDS011;373;49.342;8.146;2024-02-26T01:06:55;2.78;;;1.63;;
823;SDS011;373;49.342;8.146;2024-02-26T01:09:23;1.60;;;1.50;;
823;SDS011;373;49.342;8.146;2024-02-26T01:11:51;2.03;;;1.33;;
823;SDS011;373;49.342;8.146;2024-02-26T01:14:19;1.33;;;1.23;;
823;SDS011;373;49.342;8.146;2024-02-26T01:16:51;2.03;;;1.55;;
823;SDS011;373;49.342;8.146;2024-02-26T01:19:19;2.50;;;1.77;;
823;SDS011;373;49.342;8.146;2024-02-26T01:21:47;3.42;;;1.60;;
823;SDS011;373;49.342;8.146;2024-02-26T01:24:16;2.10;;;1.60;;
823;SDS011;373;49.342;8.146;2024-02-26T01:26:44;2.53;;;1.60;;
823;SDS011;373;49.342;8.146;2024-02-26T01:29:12;2.83;;;2.28;;
823;SDS011;373;49.342;8.146;2024-02-26T01:31:40;3.42;;;1.98;;
823;SDS011;373;49.342;8.146;2024-02-26T01:34:13;2.35;;;1.85;;
823;SDS011;373;49.342;8.146;2024-02-26T01:36:41;2.78;;;2.10;;
823;SDS011;373;49.342;8.146;2024-02-26T01:39:08;2.22;;;1.85;;
823;SDS011;373;49.342;8.146;2024-02-26T01:41:38;2.47;;;2.03;;
823;SDS011;373;49.342;8.146;2024-02-26T01:44:05;3.78;;;2.28;;
823;SDS011;373;49.342;8.146;2024-02-26T01:46:34;2.42;;;2.08;;
823;SDS011;373;49.342;8.146;2024-02-26T01:49:02;2.17;;;1.95;;
823;SDS011;373;49.342;8.146;2024-02-26T01:51:31;2.72;;;2.22;;
823;SDS011;373;49.342;8.146;2024-02-26T01:53:59;2.67;;;2.15;;
823;SDS011;373;49.342;8.146;2024-02-26T01:56:29;2.40;;;2.20;;
823;SDS011;373;49.342;8.146;2024-02-26T01:58:57;2.63;;;1.95;;
823;SDS011;373;49.342;8.146;2024-02-26T02:01:25;1.90;;;1.70;;
823;SDS011;373;49.342;8.146;2024-02-26T02:03:53;2.22;;;1.92;;
823;SDS011;373;49.342;8.146;2024-02-26T02:06:21;2.08;;;1.90;;
823;SDS011;373;49.342;8.146;2024-02-26T02:08:50;2.17;;;1.75;;
823;SDS011;373;49.342;8.146;2024-02-26T02:11:18;1.77;;;1.63;;
823;SDS011;373;49.342;8.146;2024-02-26T02:13:45;3.13;;;1.98;;
823;SDS011;373;49.342;8.146;2024-02-26T02:16:12;2.70;;;2.00;;
823;SDS011;373;49.342;8.146;2024-02-26T02:18:40;3.03;;;2.22;;
823;SDS011;373;49.342;8.146;2024-02-26T02:21:08;2.70;;;1.95;;
823;SDS011;373;49.342;8.146;2024-02-26T02:23:36;3.10;;;1.95;;
823;SDS011;373;49.342;8.146;2024-02-26T02:26:04;1.88;;;1.75;;
823;SDS011;373;49.342;8.146;2024-02-26T02:28:31;2.08;;;1.88;;
823;SDS011;373;49.342;8.146;2024-02-26T02:30:58;2.00;;;1.80;;
823;SDS011;373;49.342;8.146;2024-02-26T02:33:26;2.08;;;1.85;;
823;SDS011;373;49.342;8.146;2024-02-26T02:35:53;2.10;;;1.70;;
823;SDS011;373;49.342;8.146;2024-02-26T02:38:22;2.10;;;1.60;;
823;SDS011;373;49.342;8.146;2024-02-26T02:40:51;3.03;;;1.85;;
823;SDS011;373;49.342;8.146;2024-02-26T02:43:18;2.33;;;1.90;;
823;SDS011;373;49.342;8.146;2024-02-26T02:45:45;2.05;;;1.85;;
823;SDS011;373;49.342;8.146;2024-02-26T02:48:14;2.13;;;1.92;;
823;SDS011;373;49.342;8.146;2024-02-26T02:50:42;1.98;;;1.58;;
823;SDS011;373;49.342;8.146;2024-02-26T02:53:09;2.22;;;2.03;;
823;SDS011;373;49.342;8.146;2024-02-26T02:55:38;2.00;;;1.90;;
823;SDS011;373;49.342;8.146;2024-02-26T02:58:08;2.35;;;1.88;;
823;SDS011;373;49.342;8.146;2024-02-26T03:00:35;2.45;;;2.00;;
823;SDS011;373;49.342;8.146;2024-02-26T03:03:08;2.08;;;1.88;;
823;SDS011;373;49.342;8.146;2024-02-26T03:05:38;3.45;;;2.40;;
823;SDS011;373;49.342;8.146;2024-02-26T03:08:05;2.90;;;2.70;;
823;SDS011;373;49.342;8.146;2024-02-26T03:10:32;4.60;;;3.63;;
823;SDS011;373;49.342;8.146;2024-02-26T03:13:01;4.68;;;3.42;;
823;SDS011;373;49.342;8.146;2024-02-26T03:15:29;4.25;;;3.22;;
823;SDS011;373;49.342;8.146;2024-02-26T03:17:56;4.68;;;2.83;;
823;SDS011;373;49.342;8.146;2024-02-26T03:20:23;4.85;;;3.35;;
823;SDS011;373;49.342;8.146;2024-02-26T03:22:50;3.65;;;2.70;;
823;SDS011;373;49.342;8.146;2024-02-26T03:25:17;5.85;;;3.60;;
823;SDS011;373;49.342;8.146;2024-02-26T03:27:44;5.15;;;2.78;;
823;SDS011;373;49.342;8.146;2024-02-26T03:30:13;4.35;;;2.83;;
823;SDS011;373;49.342;8.146;2024-02-26T03:32:40;4.57;;;2.95;;
823;SDS011;373;49.342;8.146;2024-02-26T03:35:08;4.68;;;3.10;;
823;SDS011;373;49.342;8.146;2024-02-26T03:37:35;3.50;;;3.10;;
823;SDS011;373;49.342;8.146;2024-02-26T03:40:03;4.25;;;3.10;;
823;SDS011;373;49.342;8.146;2024-02-26T03:42:31;4.75;;;2.85;;
823;SDS011;373;49.342;8.146;2024-02-26T03:44:58;3.13;;;2.45;;
823;SDS011;373;49.342;8.146;2024-02-26T03:47:27;3.53;;;2.90;;
823;SDS011;373;49.342;8.146;2024-02-26T03:49:54;3.63;;;2.85;;
823;SDS011;373;49.342;8.146;2024-02-26T03:52:21;5.35;;;3.15;;
823;SDS011;373;49.342;8.146;2024-02-26T03:54:48;3.95;;;2.92;;
823;SDS011;373;49.342;8.146;2024-02-26T03:57:16;4.25;;;2.90;;
823;SDS011;373;49.342;8.146;2024-02-26T03:59:43;3.88;;;3.03;;
823;SDS011;373;49.342;8.146;2024-02-26T04:02:10;3.53;;;3.03;;
823;SDS011;373;49.342;8.146;2024-02-26T04:04:39;3.83;;;3.33;;
823;SDS011;373;49.342;8.146;2024-02-26T04:07:06;3.47;;;2.83;;
823;SDS011;373;49.342;8.146;2024-02-26T04:09:33;4.10;;;2.90;;
823;SDS011;373;49.342;8.146;2024-02-26T04:12:00;4.07;;;3.20;;
823;SDS011;373;49.342;8.146;2024-02-26T04:14:28;2.88;;;2.47;;
823;SDS011;373;49.342;8.146;2024-02-26T04:16:55;3.95;;;2.58;;
823;SDS011;373;49.342;8.146;2024-02-26T04:19:22;5.18;;;2.92;;
823;SDS011;373;49.342;8.146;2024-02-26T04:21:51;2.72;;;2.53;;
823;SDS011;373;49.342;8.146;2024-02-26T04:24:20;3.80;;;2.33;;
823;SDS011;373;49.342;8.146;2024-02-26T04:26:47;3.10;;;2.13;;
823;SDS011;373;49.342;8.146;2024-02-26T04:29:15;2.88;;;2.10;;
823;SDS011;373;49.342;8.146;2024-02-26T04:31:42;2.55;;;2.13;;
823;SDS011;373;49.342;8.146;2024-02-26T04:34:11;2.80;;;2.38;;
823;SDS011;373;49.342;8.146;2024-02-26T04:36:38;3.30;;;2.70;;
823;SDS011;373;49.342;8.146;2024-02-26T04:39:07;2.40;;;2.15;;
823;SDS011;373;49.342;8.146;2024-02-26T04:41:35;3.55;;;2.03;;
823;SDS011;373;49.342;8.146;2024-02-26T04:44:02;2.80;;;1.85;;
823;SDS011;373;49.342;8.146;2024-02-26T04:46:30;1.73;;;1.58;;
823;SDS011;373;49.342;8.146;2024-02-26T04:48:57;2.17;;;1.63;;
823;SDS011;373;49.342;8.146;2024-02-26T04:51:24;2.08;;;1.58;;
823;SDS011;373;49.342;8.146;2024-02-26T04:53:51;2.33;;;1.92;;
823;SDS011;373;49.342;8.146;2024-02-26T04:56:21;1.92;;;1.58;;
823;SDS011;373;49.342;8.146;2024-02-26T04:58:48;1.88;;;1.33;;
823;SDS011;373;49.342;8.146;2024-02-26T05:01:15;2.15;;;1.80;;
823;SDS011;373;49.342;8.146;2024-02-26T05:03:42;1.30;;;1.02;;
823;SDS011;373;49.342;8.146;2024-02-26T05:06:10;1.73;;;1.00;;
823;SDS011;373;49.342;8.146;2024-02-26T05:08:37;1.55;;;1.33;;
823;SDS011;373;49.342;8.146;2024-02-26T05:11:04;1.42;;;1.33;;
823;SDS011;373;49.342;8.146;2024-02-26T05:13:33;1.58;;;1.00;;
823;SDS011;373;49.342;8.146;2024-02-26T05:16:00;1.98;;;0.90;;
823;SDS011;373;49.342;8.146;2024-02-26T05:18:27;2.08;;;1.33;;
823;SDS011;373;49.342;8.146;2024-02-26T05:20:54;1.23;;;1.13;;
823;SDS011;373;49.342;8.146;2024-02-26T05:23:21;0.90;;;0.90;;
823;SDS011;373;49.342;8.146;2024-02-26T05:25:48;0.50;;;0.50;;
823;SDS011;373;49.342;8.146;2024-02-26T05:28:15;1.27;;;1.17;;
823;SDS011;373;49.342;8.146;2024-02-26T05:30:47;1.00;;;0.90;;
823;SDS011;373;49.342;8.146;2024-02-26T05:33:14;0.90;;;0.90;;
823;SDS011;373;49.342;8.146;2024-02-26T05:35:41;0.80;;;0.80;;
823;SDS011;373;49.342;8.146;2024-02-26T05:38:08;1.20;;;1.10;;
823;SDS011;373;49.342;8.146;2024-02-26T05:40:35;0.75;;;0.70;;
823;SDS011;373;49.342;8.146;2024-02-26T05:43:02;1.60;;;1.27;;
823;SDS011;373;49.342;8.146;2024-02-26T05:45:29;1.10;;;1.00;;
823;SDS011;373;49.342;8.146;2024-02-26T05:47:57;1.35;;;1.13;;
823;SDS011;373;49.342;8.146;2024-02-26T05:50:24;1.20;;;1.10;;
823;SDS011;373;49.342;8.146;2024-02-26T05:52:51;1.08;;;0.93;;
823;SDS011;373;49.342;8.146;2024-02-26T05:55:18;1.48;;;1.27;;
823;SDS011;373;49.342;8.146;2024-02-26T05:57:45;1.30;;;1.20;;
823;SDS011;373;49.342;8.146;2024-02-26T06:00:15;0.90;;;0.90;;
823;SDS011;373;49.342;8.146;2024-02-26T06:02:42;2.47;;;1.00;;
823;SDS011;373;49.342;8.146;2024-02-26T06:05:10;0.98;;;0.98;;
823;SDS011;373;49.342;8.146;2024-02-26T06:07:37;1.52;;;1.42;;
823;SDS011;373;49.342;8.146;2024-02-26T06:10:05;1.05;;;1.05;;
823;SDS011;373;49.342;8.146;2024-02-26T06:12:34;1.05;;;1.00;;
823;SDS011;373;49.342;8.146;2024-02-26T06:15:02;1.27;;;1.17;;
823;SDS011;373;49.342;8.146;2024-02-26T06:17:29;1.27;;;1.10;;
823;SDS011;373;49.342;8.146;2024-02-26T06:19:56;1.10;;;1.00;;
823;SDS011;373;49.342;8.146;2024-02-26T06:22:26;0.95;;;0.93;;
823;SDS011;373;49.342;8.146;2024-02-26T06:24:53;1.77;;;1.10;;
823;SDS011;373;49.342;8.146;2024-02-26T06:27:20;2.25;;;0.77;;
823;SDS011;373;49.342;8.146;2024-02-26T06:29:48;0.70;;;0.60;;
823;SDS011;373;49.342;8.146;2024-02-26T06:32:15;1.20;;;1.02;;
823;SDS011;373;49.342;8.146;2024-02-26T06:34:42;0.93;;;0.93;;
823;SDS011;373;49.342;8.146;2024-02-26T06:37:09;1.17;;;1.08;;
823;SDS011;373;49.342;8.146;2024-02-26T06:39:37;0.90;;;0.80;;
823;SDS011;373;49.342;8.146;2024-02-26T06:42:04;1.08;;;1.00;;
823;SDS011;373;49.342;8.146;2024-02-26T06:44:32;1.20;;;1.10;;
823;SDS011;373;49.342;8.146;2024-02-26T06:46:59;1.05;;;1.00;;
823;SDS011;373;49.342;8.146;2024-02-26T06:49:26;1.20;;;1.10;;
823;SDS011;373;49.342;8.146;2024-02-26T06:51:54;1.33;;;1.10;;
823;SDS011;373;49.342;8.146;2024-02-26T06:54:21;1.38;;;1.20;;
823;SDS011;373;49.342;8.146;2024-02-26T06:56:49;1.50;;;1.20;;
823;SDS011;373;49.342;8.146;2024-02-26T06:59:16;1.13;;;1.02;;
823;SDS011;373;49.342;8.146;2024-02-26T07:01:45;1.30;;;1.20;;
823;SDS011;373;49.342;8.146;2024-02-26T07:04:12;1.27;;;1.17;;
823;SDS011;373;49.342;8.146;2024-02-26T07:06:39;1.40;;;1.30;;
823;SDS011;373;49.342;8.146;2024-02-26T07:09:06;1.27;;;1.17;;
823;SDS011;373;49.342;8.146;2024-02-26T07:11:33;2.72;;;1.63;;
823;SDS011;373;49.342;8.146;2024-02-26T07:14:02;1.60;;;1.50;;
823;SDS011;373;49.342;8.146;2024-02-26T07:16:30;2.97;;;1.83;;
823;SDS011;373;49.342;8.146;2024-02-26T07:18:57;1.75;;;1.63;;
823;SDS011;373;49.342;8.146;2024-02-26T07:21:24;3.42;;;1.80;;
823;SDS011;373;49.342;8.146;2024-02-26T07:23:51;2.13;;;1.88;;
823;SDS011;373;49.342;8.146;2024-02-26T07:26:18;1.95;;;1.80;;
823;SDS011;373;49.342;8.146;2024-02-26T07:28:45;2.00;;;1.88;;
823;SDS011;373;49.342;8.146;2024-02-26T07:31:14;3.92;;;2.35;;
823;SDS011;373;49.342;8.146;2024-02-26T07:33:41;2.08;;;1.80;;
823;SDS011;373;49.342;8.146;2024-02-26T07:36:08;2.28;;;2.08;;
823;SDS011;373;49.342;8.146;2024-02-26T07:38:35;2.25;;;2.05;;
823;SDS011;373;49.342;8.146;2024-02-26T07:41:02;2.78;;;2.40;;
823;SDS011;373;49.342;8.146;2024-02-26T07:43:29;1.83;;;1.73;;
823;SDS011;373;49.342;8.146;2024-02-26T07:45:57;3.58;;;2.35;;
823;SDS011;373;49.342;8.146;2024-02-26T07:48:25;3.13;;;2.08;;
823;SDS011;373;49.342;8.146;2024-02-26T07:50:52;2.50;;;2.30;;
823;SDS011;373;49.342;8.146;2024-02-26T07:53:19;2.10;;;1.90;;
823;SDS011;373;49.342;8.146;2024-02-26T07:55:46;2.70;;;2.50;;
823;SDS011;373;49.342;8.146;2024-02-26T07:58:13;3.05;;;2.35;;
823;SDS011;373;49.342;8.146;2024-02-26T08:00:40;1.95;;;1.75;;
823;SDS011;373;49.342;8.146;2024-02-26T08:03:07;2.95;;;2.05;;
823;SDS011;373;49.342;8.146;2024-02-26T08:05:36;2.20;;;1.90;;
823;SDS011;373;49.342;8.146;2024-02-26T08:08:05;1.83;;;1.73;;
823;SDS011;373;49.342;8.146;2024-02-26T08:10:33;1.63;;;1.52;;
823;SDS011;373;49.342;8.146;2024-02-26T08:13:00;1.50;;;1.40;;
823;SDS011;373;49.342;8.146;2024-02-26T08:15:31;1.98;;;1.85;;
823;SDS011;373;49.342;8.146;2024-02-26T08:17:59;2.00;;;1.90;;
823;SDS011;373;49.342;8.146;2024-02-26T08:20:27;1.98;;;1.80;;
823;SDS011;373;49.342;8.146;2024-02-26T08:22:56;1.42;;;1.30;;
823;SDS011;373;49.342;8.146;2024-02-26T08:25:23;1.50;;;1.40;;
823;SDS011;373;49.342;8.146;2024-02-26T08:27:51;1.70;;;1.60;;
823;SDS011;373;49.342;8.146;2024-02-26T08:30:18;1.58;;;1.42;;
823;SDS011;373;49.342;8.146;2024-02-26T08:32:45;1.65;;;1.40;;
823;SDS011;373;49.342;8.146;2024-02-26T08:35:13;1.88;;;1.77;;
823;SDS011;373;49.342;8.146;2024-02-26T08:37:43;1.65;;;1.25;;
823;SDS011;373;49.342;8.146;2024-02-26T08:40:12;1.48;;;1.38;;
823;SDS011;373;49.342;8.146;2024-02-26T08:42:40;1.63;;;1.52;;
823;SDS011;373;49.342;8.146;2024-02-26T08:45:07;2.05;;;1.67;;
823;SDS011;373;49.342;8.146;2024-02-26T08:47:35;2.20;;;2.00;;
823;SDS011;373;49.342;8.146;2024-02-26T08:50:02;2.13;;;1.70;;
823;SDS011;373;49.342;8.146;2024-02-26T08:52:30;2.53;;;1.90;;
823;SDS011;373;49.342;8.146;2024-02-26T08:54:58;2.03;;;1.85;;
823;SDS011;373;49.342;8.146;2024-02-26T08:57:26;2.10;;;1.98;;
823;SDS011;373;49.342;8.146;2024-02-26T08:59:53;1.85;;;1.75;;
823;SDS011;373;49.342;8.146;2024-02-26T09:02:20;1.83;;;1.65;;
823;SDS011;373;49.342;8.146;2024-02-26T09:04:47;1.65;;;1.55;;
823;SDS011;373;49.342;8.146;2024-02-26T09:07:16;2.00;;;1.90;;
823;SDS011;373;49.342;8.146;2024-02-26T09:09:43;2.03;;;1.83;;
823;SDS011;373;49.342;8.146;2024-02-26T09:12:10;2.80;;;2.20;;
823;SDS011;373;49.342;8.146;2024-02-26T09:14:38;1.83;;;1.65;;
823;SDS011;373;49.342;8.146;2024-02-26T09:17:05;1.48;;;1.33;;
823;SDS011;373;49.342;8.146;2024-02-26T09:19:32;2.50;;;1.33;;
823;SDS011;373;49.342;8.146;2024-02-26T09:22:00;1.35;;;1.25;;
823;SDS011;373;49.342;8.146;2024-02-26T09:24:27;2.50;;;1.63;;
823;SDS011;373;49.342;8.146;2024-02-26T09:26:54;1.83;;;1.50;;
823;SDS011;373;49.342;8.146;2024-02-26T09:29:21;2.20;;;1.73;;
823;SDS011;373;49.342;8.146;2024-02-26T09:31:49;1.45;;;1.35;;
823;SDS011;373;49.342;8.146;2024-02-26T09:34:16;2.05;;;1.85;;
823;SDS011;373;49.342;8.146;2024-02-26T09:36:43;2.55;;;1.90;;
823;SDS011;373;49.342;8.146;2024-02-26T09:39:10;1.75;;;1.65;;
823;SDS011;373;49.342;8.146;2024-02-26T09:41:39;2.17;;;1.30;;
823;SDS011;373;49.342;8.146;2024-02-26T09:44:07;3.17;;;1.90;;
823;SDS011;373;49.342;8.146;2024-02-26T09:46:36;1.77;;;1.67;;
823;SDS011;373;49.342;8.146;2024-02-26T09:49:05;1.40;;;1.30;;
823;SDS011;373;49.342;8.146;2024-02-26T09:51:34;1.90;;;1.60;;
823;SDS011;373;49.342;8.146;2024-02-26T09:54:01;1.50;;;1.40;;
823;SDS011;373;49.342;8.146;2024-02-26T09:56:28;1.77;;;1.48;;
823;SDS011;373;49.342;8.146;2024-02-26T09:58:57;1.48;;;1.38;;
823;SDS011;373;49.342;8.146;2024-02-26T10:01:25;2.22;;;1.60;;
823;SDS011;373;49.342;8.146;2024-02-26T10:03:54;1.88;;;1.77;;
823;SDS011;373;49.342;8.146;2024-02-26T10:06:25;1.95;;;1.50;;
823;SDS011;373;49.342;8.146;2024-02-26T10:08:53;3.05;;;1.50;;
823;SDS011;373;49.342;8.146;2024-02-26T10:11:21;1.48;;;1.38;;
823;SDS011;373;49.342;8.146;2024-02-26T10:13:50;1.92;;;1.20;;
823;SDS011;373;49.342;8.146;2024-02-26T10:16:17;1.40;;;1.30;;
823;SDS011;373;49.342;8.146;2024-02-26T10:18:45;1.95;;;1.40;;
823;SDS011;373;49.342;8.146;2024-02-26T10:21:12;1.50;;;1.35;;
823;SDS011;373;49.342;8.146;2024-02-26T10:23:43;1.38;;;1.27;;
823;SDS011;373;49.342;8.146;2024-02-26T10:26:10;1.40;;;1.17;;
823;SDS011;373;49.342;8.146;2024-02-26T10:28:38;1.42;;;1.33;;
823;SDS011;373;49.342;8.146;2024-02-26T10:31:06;1.33;;;1.20;;
823;SDS011;373;49.342;8.146;2024-02-26T10:33:33;1.08;;;1.00;;
823;SDS011;373;49.342;8.146;2024-02-26T10:36:02;1.88;;;1.15;;
823;SDS011;373;49.342;8.146;2024-02-26T10:38:30;1.90;;;1.60;;
823;SDS011;373;49.342;8.146;2024-02-26T10:40:59;0.80;;;0.80;;
823;SDS011;373;49.342;8.146;2024-02-26T10:43:28;1.10;;;1.00;;
823;SDS011;373;49.342;8.146;2024-02-26T10:45:55;1.08;;;1.05;;
823;SDS011;373;49.342;8.146;2024-02-26T10:48:22;1.40;;;1.30;;
823;SDS011;373;49.342;8.146;2024-02-26T10:50:50;1.17;;;1.08;;
823;SDS011;373;49.342;8.146;2024-02-26T10:53:20;1.40;;;1.20;;
823;SDS011;373;49.342;8.146;2024-02-26T10:55:48;2.13;;;1.30;;
823;SDS011;373;49.342;8.146;2024-02-26T10:58:20;1.13;;;1.10;;
823;SDS011;373;49.342;8.146;2024-02-26T11:00:50;1.92;;;1.48;;
823;SDS011;373;49.342;8.146;2024-02-26T11:03:17;1.35;;;1.25;;
823;SDS011;373;49.342;8.146;2024-02-26T11:05:45;1.55;;;1.40;;
823;SDS011;373;49.342;8.146;2024-02-26T11:08:14;1.75;;;1.65;;
823;SDS011;373;49.342;8.146;2024-02-26T11:10:42;1.30;;;1.20;;
823;SDS011;373;49.342;8.146;2024-02-26T11:13:10;1.63;;;1.33;;
823;SDS011;373;49.342;8.146;2024-02-26T11:15:42;2.60;;;1.40;;
823;SDS011;373;49.342;8.146;2024-02-26T11:18:10;1.33;;;1.23;;
823;SDS011;373;49.342;8.146;2024-02-26T11:20:39;5.50;;;3.83;;
823;SDS011;373;49.342;8.146;2024-02-26T11:23:07;3.03;;;1.75;;
823;SDS011;373;49.342;8.146;2024-02-26T11:25:35;1.42;;;1.33;;
823;SDS011;373;49.342;8.146;2024-02-26T11:28:05;1.58;;;1.40;;
823;SDS011;373;49.342;8.146;2024-02-26T11:30:35;1.10;;;1.10;;
823;SDS011;373;49.342;8.146;2024-02-26T11:33:09;3.60;;;1.20;;
823;SDS011;373;49.342;8.146;2024-02-26T11:35:37;2.83;;;1.70;;
823;SDS011;373;49.342;8.146;2024-02-26T11:38:05;1.60;;;1.50;;
823;SDS011;373;49.342;8.146;2024-02-26T11:40:33;1.88;;;1.65;;
823;SDS011;373;49.342;8.146;2024-02-26T11:43:04;1.80;;;1.50;;
823;SDS011;373;49.342;8.146;2024-02-26T11:45:47;1.80;;;1.40;;
823;SDS011;373;49.342;8.146;2024-02-26T11:48:21;2.05;;;1.40;;
823;SDS011;373;49.342;8.146;2024-02-26T11:50:50;1.35;;;1.25;;
823;SDS011;373;49.342;8.146;2024-02-26T11:53:19;1.50;;;1.40;;
823;SDS011;373;49.342;8.146;2024-02-26T11:55:46;2.55;;;1.65;;
823;SDS011;373;49.342;8.146;2024-02-26T11:58:13;1.40;;;1.30;;
823;SDS011;373;49.342;8.146;2024-02-26T12:00:40;1.73;;;1.52;;
823;SDS011;373;49.342;8.146;2024-02-26T12:03:08;1.42;;;1.33;;
823;SDS011;373;49.342;8.146;2024-02-26T12:05:38;1.40;;;1.30;;
823;SDS011;373;49.342;8.146;2024-02-26T12:08:06;2.15;;;1.52;;
823;SDS011;373;49.342;8.146;2024-02-26T12:10:35;1.48;;;1.38;;
823;SDS011;373;49.342;8.146;2024-02-26T12:13:05;1.75;;;1.65;;
823;SDS011;373;49.342;8.146;2024-02-26T12:15:36;1.48;;;1.38;;
823;SDS011;373;49.342;8.146;2024-02-26T12:18:05;1.50;;;1.40;;
823;SDS011;373;49.342;8.146;2024-02-26T12:20:35;1.40;;;1.30;;
823;SDS011;373;49.342;8.146;2024-02-26T12:23:04;1.88;;;1.40;;
823;SDS011;373;49.342;8.146;2024-02-26T12:25:32;1.48;;;1.38;;
823;SDS011;373;49.342;8.146;2024-02-26T12:27:59;1.70;;;1.60;;
823;SDS011;373;49.342;8.146;2024-02-26T12:30:26;2.08;;;1.48;;
823;SDS011;373;49.342;8.146;2024-02-26T12:32:59;1.67;;;1.48;;
823;SDS011;373;49.342;8.146;2024-02-26T12:35:28;1.88;;;1.60;;
823;SDS011;373;49.342;8.146;2024-02-26T12:37:57;1.40;;;1.30;;
823;SDS011;373;49.342;8.146;2024-02-26T12:40:26;2.17;;;1.50;;
823;SDS011;373;49.342;8.146;2024-02-26T12:42:53;1.58;;;1.48;;
823;SDS011;373;49.342;8.146;2024-02-26T12:45:20;2.60;;;1.60;;
823;SDS011;373;49.342;8.146;2024-02-26T12:47:48;1.50;;;1.13;;
823;SDS011;373;49.342;8.146;2024-02-26T12:50:19;3.13;;;1.85;;
823;SDS011;373;49.342;8.146;2024-02-26T12:52:46;1.98;;;1.73;;
823;SDS011;373;49.342;8.146;2024-02-26T12:55:14;1.67;;;1.58;;
823;SDS011;373;49.342;8.146;2024-02-26T12:57:46;2.15;;;1.33;;
823;SDS011;373;49.342;8.146;2024-02-26T13:00:15;1.65;;;1.38;;
823;SDS011;373;49.342;8.146;2024-02-26T13:02:45;1.70;;;1.35;;
823;SDS011;373;49.342;8.146;2024-02-26T13:05:13;1.80;;;1.70;;
823;SDS011;373;49.342;8.146;2024-02-26T13:07:40;1.90;;;1.80;;
823;SDS011;373;49.342;8.146;2024-02-26T13:10:08;2.60;;;1.63;;
823;SDS011;373;49.342;8.146;2024-02-26T13:12:37;2.15;;;1.50;;
823;SDS011;373;49.342;8.146;2024-02-26T13:15:06;1.58;;;1.40;;
823;SDS011;373;49.342;8.146;2024-02-26T13:17:34;1.67;;;1.58;;
823;SDS011;373;49.342;8.146;2024-02-26T13:20:01;1.63;;;1.40;;
823;SDS011;373;49.342;8.146;2024-02-26T13:22:29;1.48;;;1.38;;
823;SDS011;373;49.342;8.146;2024-02-26T13:24:59;1.67;;;1.23;;
823;SDS011;373;49.342;8.146;2024-02-26T13:27:29;1.23;;;1.10;;
823;SDS011;373;49.342;8.146;2024-02-26T13:30:08;1.60;;;1.50;;
823;SDS011;373;49.342;8.146;2024-02-26T13:32:36;5.07;;;1.30;;
823;SDS011;373;49.342;8.146;2024-02-26T13:35:05;1.90;;;1.27;;
823;SDS011;373;49.342;8.146;2024-02-26T13:37:33;2.92;;;1.13;;
823;SDS011;373;49.342;8.146;2024-02-26T13:40:00;1.38;;;1.17;;
823;SDS011;373;49.342;8.146;2024-02-26T13:42:32;2.92;;;1.40;;
823;SDS011;373;49.342;8.146;2024-02-26T13:44:59;1.35;;;1.25;;
823;SDS011;373;49.342;8.146;2024-02-26T13:47:27;1.20;;;1.10;;
823;SDS011;373;49.342;8.146;2024-02-26T13:49:55;1.45;;;1.30;;
823;SDS011;373;49.342;8.146;2024-02-26T13:52:22;1.40;;;0.90;;
823;SDS011;373;49.342;8.146;2024-02-26T13:54:49;1.48;;;1.15;;
823;SDS011;373;49.342;8.146;2024-02-26T13:57:16;1.20;;;1.10;;
823;SDS011;373;49.342;8.146;2024-02-26T13:59:43;1.30;;;1.20;;
823;SDS011;373;49.342;8.146;2024-02-26T14:02:10;1.35;;;1.27;;
823;SDS011;373;49.342;8.146;2024-02-26T14:04:39;1.95;;;1.42;;
823;SDS011;373;49.342;8.146;2024-02-26T14:07:07;1.20;;;0.90;;
823;SDS011;373;49.342;8.146;2024-02-26T14:09:35;1.30;;;1.20;;
823;SDS011;373;49.342;8.146;2024-02-26T14:12:02;1.48;;;1.23;;
823;SDS011;373;49.342;8.146;2024-02-26T14:14:29;1.30;;;1.17;;
823;SDS011;373;49.342;8.146;2024-02-26T14:17:00;1.33;;;1.27;;
823;SDS011;373;49.342;8.146;2024-02-26T14:19:28;0.82;;;0.82;;
823;SDS011;373;49.342;8.146;2024-02-26T14:21:57;1.00;;;0.90;;
823;SDS011;373;49.342;8.146;2024-02-26T14:24:24;1.42;;;0.98;;
823;SDS011;373;49.342;8.146;2024-02-26T14:26:51;1.00;;;0.90;;
823;SDS011;373;49.342;8.146;2024-02-26T14:29:18;1.00;;;0.93;;
823;SDS011;373;49.342;8.146;2024-02-26T14:31:45;1.48;;;0.88;;
823;SDS011;373;49.342;8.146;2024-02-26T14:34:12;2.00;;;0.85;;
823;SDS011;373;49.342;8.146;2024-02-26T14:36:39;0.88;;;0.88;;
823;SDS011;373;49.342;8.146;2024-02-26T14:39:09;1.23;;;0.90;;
823;SDS011;373;49.342;8.146;2024-02-26T14:41:37;1.58;;;0.75;;
823;SDS011;373;49.342;8.146;2024-02-26T14:44:04;1.27;;;0.88;;
823;SDS011;373;49.342;8.146;2024-02-26T14:46:32;1.33;;;0.80;;
823;SDS011;373;49.342;8.146;2024-02-26T14:48:59;1.67;;;0.70;;
823;SDS011;373;49.342;8.146;2024-02-26T14:51:26;0.70;;;0.70;;
823;SDS011;373;49.342;8.146;2024-02-26T14:53:53;0.80;;;0.80;;
823;SDS011;373;49.342;8.146;2024-02-26T14:56:21;0.50;;;0.50;;
823;SDS011;373;49.342;8.146;2024-02-26T14:58:48;1.10;;;1.00;;
823;SDS011;373;49.342;8.146;2024-02-26T15:01:15;0.80;;;0.80;;
823;SDS011;373;49.342;8.146;2024-02-26T15:03:42;1.15;;;1.05;;
823;SDS011;373;49.342;8.146;2024-02-26T15:06:09;3.38;;;1.02;;
823;SDS011;373;49.342;8.146;2024-02-26T15:08:36;1.45;;;1.00;;
823;SDS011;373;49.342;8.146;2024-02-26T15:11:03;1.60;;;1.23;;
823;SDS011;373;49.342;8.146;2024-02-26T15:13:32;1.50;;;1.40;;
823;SDS011;373;49.342;8.146;2024-02-26T15:16:00;1.90;;;1.80;;
823;SDS011;373;49.342;8.146;2024-02-26T15:18:27;2.33;;;2.10;;
823;SDS011;373;49.342;8.146;2024-02-26T15:20:54;2.55;;;1.80;;
823;SDS011;373;49.342;8.146;2024-02-26T15:23:21;2.22;;;2.03;;
823;SDS011;373;49.342;8.146;2024-02-26T15:25:48;2.63;;;2.42;;
823;SDS011;373;49.342;8.146;2024-02-26T15:28:15;2.80;;;2.20;;
823;SDS011;373;49.342;8.146;2024-02-26T15:30:43;3.05;;;2.65;;
823;SDS011;373;49.342;8.146;2024-02-26T15:33:10;3.08;;;2.78;;
823;SDS011;373;49.342;8.146;2024-02-26T15:35:38;2.88;;;2.40;;
823;SDS011;373;49.342;8.146;2024-02-26T15:38:07;4.18;;;3.08;;
823;SDS011;373;49.342;8.146;2024-02-26T15:40:34;2.90;;;2.65;;
823;SDS011;373;49.342;8.146;2024-02-26T15:43:01;3.15;;;2.90;;
823;SDS011;373;49.342;8.146;2024-02-26T15:45:28;3.10;;;2.83;;
823;SDS011;373;49.342;8.146;2024-02-26T15:47:59;3.20;;;2.90;;